createdAt,value
2022-11-13T00:00:05.293Z,3.60
2022-11-13T00:01:05.225Z,2.90
2022-11-13T00:02:05.282Z,3.10
2022-11-13T00:03:05.193Z,1.90
2022-11-13T00:04:05.191Z,2.70
2022-11-13T00:05:05.284Z,3.80
2022-11-13T00:06:05.138Z,4.60
2022-11-13T00:07:05.157Z,3.80
2022-11-13T00:08:05.104Z,4.50
2022-11-13T00:09:05.079Z,3.70
2022-11-13T00:10:05.093Z,2.80
2022-11-13T00:11:05.056Z,2.20
2022-11-13T00:12:05.021Z,2.70
2022-11-13T00:13:05.015Z,2.30
2022-11-13T00:14:04.997Z,2.60
2022-11-13T00:15:04.999Z,1.70
2022-11-13T00:16:37.353Z,1.80
2022-11-13T00:17:04.948Z,1.60
2022-11-13T00:18:04.938Z,2.70
2022-11-13T00:19:04.955Z,2.80
2022-11-13T00:20:04.962Z,2.50
2022-11-13T00:21:04.874Z,1.70
2022-11-13T00:22:04.882Z,2.10
2022-11-13T00:23:04.841Z,4.10
2022-11-13T00:24:04.832Z,1.80
2022-11-13T00:25:04.924Z,2.00
2022-11-13T00:26:04.845Z,2.40
2022-11-13T00:27:04.786Z,2.40
2022-11-13T00:28:04.760Z,1.90
2022-11-13T00:29:04.735Z,3.00
2022-11-13T00:30:04.776Z,2.40
2022-11-13T00:31:04.702Z,1.50
2022-11-13T00:32:05.713Z,2.00
2022-11-13T00:33:04.686Z,1.70
2022-11-13T00:34:26.050Z,2.20
2022-11-13T00:35:06.680Z,1.70
2022-11-13T00:36:04.641Z,1.70
2022-11-13T00:37:04.613Z,1.90
2022-11-13T00:38:04.629Z,2.30
2022-11-13T00:39:04.571Z,2.50
2022-11-13T00:40:04.586Z,2.30
2022-11-13T00:41:04.611Z,1.80
2022-11-13T00:42:04.519Z,2.60
2022-11-13T00:43:04.501Z,2.20
2022-11-13T00:44:04.519Z,2.40
2022-11-13T00:45:04.509Z,2.10
2022-11-13T00:46:05.507Z,1.80
2022-11-13T00:47:04.487Z,1.90
2022-11-13T00:48:04.416Z,1.90
2022-11-13T00:49:04.392Z,1.60
2022-11-13T00:50:04.407Z,1.50
2022-11-13T00:51:04.371Z,1.80
2022-11-13T00:52:04.426Z,2.10
2022-11-13T00:53:04.327Z,2.70
2022-11-13T00:54:04.319Z,1.90
2022-11-13T00:55:04.328Z,2.10
2022-11-13T00:56:04.287Z,2.50
2022-11-13T00:57:04.258Z,3.40
2022-11-13T00:58:04.247Z,1.90
2022-11-13T00:59:04.227Z,3.50
2022-11-13T01:00:04.240Z,5.20
2022-11-13T01:01:04.202Z,4.80
2022-11-13T01:02:04.221Z,5.00
2022-11-13T01:03:04.154Z,4.10
2022-11-13T01:04:04.142Z,3.00
2022-11-13T01:05:04.150Z,2.80
2022-11-13T01:06:04.115Z,3.80
2022-11-13T01:07:04.136Z,2.40
2022-11-13T01:08:04.067Z,1.90
2022-11-13T01:09:04.068Z,1.60
2022-11-13T01:10:04.095Z,2.90
2022-11-13T01:11:04.026Z,2.70
2022-11-13T01:12:04.008Z,2.40
2022-11-13T01:13:04.058Z,2.60
2022-11-13T01:14:04.972Z,2.80
2022-11-13T01:15:04.011Z,2.20
2022-11-13T01:16:03.968Z,2.30
2022-11-13T01:17:03.921Z,2.50
2022-11-13T01:18:03.894Z,2.40
2022-11-13T01:19:03.887Z,2.70
2022-11-13T01:20:03.900Z,3.30
2022-11-13T01:21:03.857Z,3.30
2022-11-13T01:22:03.838Z,3.00
2022-11-13T01:23:03.818Z,2.70
2022-11-13T01:24:03.809Z,3.10
2022-11-13T01:25:03.834Z,2.30
2022-11-13T01:26:03.775Z,3.30
2022-11-13T01:27:03.755Z,3.20
2022-11-13T01:28:03.741Z,3.20
2022-11-13T01:29:03.796Z,1.90
2022-11-13T01:30:03.734Z,3.20
2022-11-13T01:31:03.680Z,1.90
2022-11-13T01:32:03.665Z,2.90
2022-11-13T01:33:03.636Z,3.50
2022-11-13T01:34:03.627Z,1.90
2022-11-13T01:35:03.637Z,2.60
2022-11-13T01:36:03.587Z,2.10
2022-11-13T01:37:03.592Z,1.70
2022-11-13T01:38:03.560Z,2.10
2022-11-13T01:39:03.541Z,2.10
2022-11-13T01:40:03.547Z,2.10
2022-11-13T01:41:03.509Z,2.40
2022-11-13T01:42:03.488Z,2.20
2022-11-13T01:43:03.480Z,2.00
2022-11-13T01:44:03.444Z,1.60
2022-11-13T01:45:03.541Z,2.20
2022-11-13T01:46:03.419Z,1.70
2022-11-13T01:47:03.418Z,1.80
2022-11-13T01:48:03.619Z,1.70
2022-11-13T01:49:03.369Z,2.10
2022-11-13T01:50:03.434Z,2.30
2022-11-13T01:51:03.335Z,2.00
2022-11-13T01:52:03.306Z,1.90
2022-11-13T01:53:03.295Z,2.20
2022-11-13T01:54:03.278Z,2.70
2022-11-13T01:55:03.288Z,2.20
2022-11-13T01:56:03.235Z,1.90
2022-11-13T01:57:03.222Z,2.00
2022-11-13T01:58:03.205Z,2.50
2022-11-13T01:59:03.197Z,2.00
2022-11-13T02:00:03.210Z,1.70
2022-11-13T02:01:03.237Z,2.30
2022-11-13T02:02:03.179Z,1.70
2022-11-13T02:03:03.122Z,2.00
2022-11-13T02:04:03.122Z,1.90
2022-11-13T02:05:03.130Z,2.10
2022-11-13T02:06:03.079Z,1.90
2022-11-13T02:07:03.087Z,2.00
2022-11-13T02:08:03.046Z,2.10
2022-11-13T02:09:03.027Z,2.10
2022-11-13T02:10:03.051Z,1.80
2022-11-13T02:11:02.981Z,2.40
2022-11-13T02:12:02.972Z,1.80
2022-11-13T02:13:02.954Z,1.70
2022-11-13T02:14:02.947Z,1.60
2022-11-13T02:15:02.950Z,1.70
2022-11-13T02:16:02.902Z,1.70
2022-11-13T02:17:02.957Z,2.00
2022-11-13T02:18:02.881Z,2.80
2022-11-13T02:19:02.878Z,1.70
2022-11-13T02:20:02.869Z,2.10
2022-11-13T02:21:02.851Z,2.40
2022-11-13T02:22:02.800Z,2.40
2022-11-13T02:23:02.789Z,3.10
2022-11-13T02:24:02.767Z,1.70
2022-11-13T02:25:02.777Z,2.90
2022-11-13T02:26:02.726Z,2.20
2022-11-13T02:27:02.710Z,2.00
2022-11-13T02:28:02.694Z,2.30
2022-11-13T02:29:02.675Z,2.20
2022-11-13T02:30:02.707Z,3.60
2022-11-13T02:31:02.687Z,3.00
2022-11-13T02:32:02.648Z,2.00
2022-11-13T02:33:02.678Z,3.40
2022-11-13T02:34:02.587Z,3.70
2022-11-13T02:35:02.606Z,3.10
2022-11-13T02:36:02.561Z,2.10
2022-11-13T02:37:02.534Z,2.70
2022-11-13T02:38:02.539Z,2.50
2022-11-13T02:39:02.499Z,3.10
2022-11-13T02:40:02.504Z,4.30
2022-11-13T02:41:02.502Z,2.80
2022-11-13T02:42:02.458Z,2.40
2022-11-13T02:43:02.436Z,3.20
2022-11-13T02:44:02.429Z,2.40
2022-11-13T02:45:02.394Z,3.00
2022-11-13T02:46:02.421Z,3.40
2022-11-13T02:47:02.363Z,3.30
2022-11-13T02:48:02.347Z,2.40
2022-11-13T02:49:02.425Z,2.60
2022-11-13T02:50:02.313Z,2.70
2022-11-13T02:51:02.322Z,2.10
2022-11-13T02:52:02.273Z,1.90
2022-11-13T02:53:02.262Z,2.80
2022-11-13T02:54:02.256Z,2.50
2022-11-13T02:55:02.231Z,2.20
2022-11-13T02:56:02.241Z,2.60
2022-11-13T02:57:02.207Z,2.20
2022-11-13T02:58:02.171Z,2.70
2022-11-13T02:59:02.161Z,3.00
2022-11-13T03:00:02.137Z,2.70
2022-11-13T03:01:02.146Z,2.10
2022-11-13T03:02:02.160Z,3.20
2022-11-13T03:03:02.092Z,2.30
2022-11-13T03:04:02.059Z,2.10
2022-11-13T03:05:11.879Z,2.20
2022-11-13T03:06:04.067Z,2.50
2022-11-13T03:07:02.075Z,3.10
2022-11-13T03:08:01.992Z,2.20
2022-11-13T03:09:02.007Z,3.00
2022-11-13T03:10:01.997Z,2.50
2022-11-13T03:11:01.966Z,2.10
2022-11-13T03:12:01.924Z,3.10
2022-11-13T03:13:01.908Z,3.00
2022-11-13T03:14:01.901Z,3.20
2022-11-13T03:15:01.914Z,2.50
2022-11-13T03:16:02.862Z,2.70
2022-11-13T03:17:01.840Z,2.90
2022-11-13T03:18:01.825Z,3.00
2022-11-13T03:19:02.819Z,3.00
2022-11-13T03:20:01.820Z,2.90
2022-11-13T03:21:01.845Z,3.00
2022-11-13T03:22:01.761Z,3.00
2022-11-13T03:23:01.750Z,3.70
2022-11-13T03:24:01.724Z,3.20
2022-11-13T03:25:06.033Z,3.70
2022-11-13T03:26:02.677Z,2.90
2022-11-13T03:27:02.686Z,3.10
2022-11-13T03:28:01.648Z,2.80
2022-11-13T03:29:01.629Z,2.90
2022-11-13T03:30:01.668Z,3.10
2022-11-13T03:31:01.599Z,3.20
2022-11-13T03:32:01.595Z,3.90
2022-11-13T03:33:01.579Z,3.20
2022-11-13T03:34:01.566Z,3.50
2022-11-13T03:35:01.585Z,3.80
2022-11-13T03:36:01.507Z,2.90
2022-11-13T03:37:01.571Z,3.50
2022-11-13T03:38:01.475Z,3.40
2022-11-13T03:39:01.465Z,2.80
2022-11-13T03:40:01.482Z,2.50
2022-11-13T03:41:01.430Z,2.90
2022-11-13T03:42:01.406Z,3.50
2022-11-13T03:43:01.387Z,2.50
2022-11-13T03:44:02.378Z,3.40
2022-11-13T03:45:01.380Z,3.30
2022-11-13T03:46:01.343Z,3.50
2022-11-13T03:47:01.327Z,2.50
2022-11-13T03:48:01.331Z,2.40
2022-11-13T03:49:01.284Z,2.40
2022-11-13T03:50:01.298Z,2.70
2022-11-13T03:51:01.253Z,2.20
2022-11-13T03:52:02.239Z,3.70
2022-11-13T03:53:01.292Z,2.50
2022-11-13T03:54:01.231Z,2.20
2022-11-13T03:55:01.221Z,2.40
2022-11-13T03:56:01.189Z,2.00
2022-11-13T03:57:01.155Z,2.80
2022-11-13T03:58:01.144Z,2.10
2022-11-13T03:59:01.137Z,2.20
2022-11-13T04:00:01.149Z,1.70
2022-11-13T04:01:01.126Z,3.00
2022-11-13T04:02:01.113Z,1.90
2022-11-13T04:03:01.071Z,1.60
2022-11-13T04:04:01.080Z,3.10
2022-11-13T04:05:01.060Z,1.80
2022-11-13T04:06:01.005Z,2.40
2022-11-13T04:07:00.996Z,2.20
2022-11-13T04:08:00.969Z,2.00
2022-11-13T04:09:01.020Z,1.90
2022-11-13T04:10:01.025Z,2.60
2022-11-13T04:11:00.918Z,2.20
2022-11-13T04:12:00.903Z,2.50
2022-11-13T04:13:00.911Z,1.70
2022-11-13T04:14:00.859Z,2.10
2022-11-13T04:15:00.887Z,2.60
2022-11-13T04:16:00.840Z,1.70
2022-11-13T04:17:00.819Z,2.40
2022-11-13T04:18:01.800Z,2.40
2022-11-13T04:19:00.780Z,2.50
2022-11-13T04:20:00.841Z,2.50
2022-11-13T04:21:00.754Z,2.10
2022-11-13T04:22:00.780Z,2.30
2022-11-13T04:23:00.715Z,2.20
2022-11-13T04:24:00.796Z,2.50
2022-11-13T04:25:00.789Z,3.50
2022-11-13T04:26:00.675Z,2.70
2022-11-13T04:27:00.672Z,2.70
2022-11-13T04:28:00.664Z,2.00
2022-11-13T04:29:00.634Z,2.00
2022-11-13T04:30:00.655Z,2.00
2022-11-13T04:31:00.595Z,3.10
2022-11-13T04:32:00.564Z,2.40
2022-11-13T04:33:00.546Z,2.10
2022-11-13T04:34:00.511Z,2.80
2022-11-13T04:35:00.527Z,2.40
2022-11-13T04:36:00.517Z,4.30
2022-11-13T04:37:00.466Z,3.30
2022-11-13T04:38:00.442Z,2.10
2022-11-13T04:39:00.436Z,3.80
2022-11-13T04:40:00.453Z,2.50
2022-11-13T04:41:00.460Z,2.90
2022-11-13T04:42:00.375Z,2.30
2022-11-13T04:43:00.367Z,2.50
2022-11-13T04:44:00.337Z,2.00
2022-11-13T04:45:00.339Z,2.30
2022-11-13T04:46:00.288Z,3.70
2022-11-13T04:47:00.286Z,2.30
2022-11-13T04:48:00.277Z,2.80
2022-11-13T04:49:00.289Z,2.50
2022-11-13T04:50:00.267Z,2.30
2022-11-13T04:51:00.220Z,2.70
2022-11-13T04:52:00.196Z,2.00
2022-11-13T04:53:00.182Z,2.10
2022-11-13T04:54:00.160Z,2.20
2022-11-13T04:55:00.190Z,2.90
2022-11-13T04:56:00.121Z,2.40
2022-11-13T04:57:00.176Z,2.90
2022-11-13T04:58:00.097Z,2.40
2022-11-13T04:59:00.083Z,2.90
2022-11-13T05:00:00.097Z,2.20
2022-11-13T05:01:00.034Z,2.70
2022-11-13T05:02:00.078Z,2.80
2022-11-13T05:03:00.023Z,2.80
2022-11-13T05:03:59.990Z,2.50
2022-11-13T05:05:04.714Z,2.30
2022-11-13T05:06:01.959Z,3.00
2022-11-13T05:06:59.944Z,2.90
2022-11-13T05:07:59.923Z,3.50
2022-11-13T05:09:00.006Z,3.50
2022-11-13T05:09:59.917Z,4.50
2022-11-13T05:10:59.865Z,3.90
2022-11-13T05:11:59.850Z,5.00
2022-11-13T05:12:59.901Z,3.40
2022-11-13T05:14:03.494Z,3.40
2022-11-13T05:15:00.832Z,2.70
2022-11-13T05:15:59.780Z,3.60
2022-11-13T05:16:59.775Z,3.60
2022-11-13T05:17:59.739Z,4.70
2022-11-13T05:18:59.741Z,4.10
2022-11-13T05:19:59.747Z,5.50
2022-11-13T05:20:59.705Z,3.30
2022-11-13T05:21:59.676Z,4.40
2022-11-13T05:22:59.669Z,4.30
2022-11-13T05:23:59.653Z,4.70
2022-11-13T05:24:59.652Z,4.80
2022-11-13T05:25:59.601Z,4.40
2022-11-13T05:26:59.595Z,3.70
2022-11-13T05:27:59.641Z,4.60
2022-11-13T05:28:59.625Z,3.60
2022-11-13T05:29:59.572Z,3.40
2022-11-13T05:30:59.521Z,2.90
2022-11-13T05:31:59.496Z,3.80
2022-11-13T05:32:59.510Z,3.80
2022-11-13T05:34:05.339Z,3.50
2022-11-13T05:35:01.496Z,3.20
2022-11-13T05:35:59.428Z,3.00
2022-11-13T05:36:59.419Z,4.50
2022-11-13T05:37:59.393Z,3.40
2022-11-13T05:38:59.413Z,3.80
2022-11-13T05:39:59.393Z,4.00
2022-11-13T05:40:59.345Z,3.90
2022-11-13T05:41:59.338Z,4.00
2022-11-13T05:42:59.311Z,4.10
2022-11-13T05:43:59.941Z,4.30
2022-11-13T05:45:00.373Z,3.60
2022-11-13T05:45:59.268Z,3.70
2022-11-13T05:46:59.238Z,4.00
2022-11-13T05:47:59.221Z,3.80
2022-11-13T05:49:00.205Z,4.40
2022-11-13T05:49:59.214Z,4.60
2022-11-13T05:50:59.165Z,4.60
2022-11-13T05:51:59.156Z,5.20
2022-11-13T05:52:59.131Z,5.20
2022-11-13T05:53:59.124Z,4.70
2022-11-13T05:54:59.133Z,4.00
2022-11-13T05:55:59.078Z,4.40
2022-11-13T05:56:59.060Z,4.70
2022-11-13T05:57:59.049Z,3.90
2022-11-13T05:58:59.027Z,4.70
2022-11-13T05:59:59.053Z,4.00
2022-11-13T06:00:59.069Z,4.30
2022-11-13T06:01:59.021Z,4.20
2022-11-13T06:02:58.955Z,4.40
2022-11-13T06:03:58.941Z,4.70
2022-11-13T06:04:58.946Z,4.50
2022-11-13T06:05:58.903Z,3.70
2022-11-13T06:06:58.913Z,3.70
2022-11-13T06:07:58.857Z,4.30
2022-11-13T06:08:59.881Z,4.00
2022-11-13T06:09:58.834Z,3.50
2022-11-13T06:10:58.838Z,4.10
2022-11-13T06:11:58.791Z,3.60
2022-11-13T06:12:58.783Z,2.80
2022-11-13T06:13:58.756Z,3.70
2022-11-13T06:14:58.779Z,2.90
2022-11-13T06:16:31.171Z,3.50
2022-11-13T06:16:58.767Z,3.20
2022-11-13T06:17:58.693Z,3.90
2022-11-13T06:18:58.681Z,3.60
2022-11-13T06:19:58.709Z,3.90
2022-11-13T06:20:58.676Z,3.80
2022-11-13T06:21:58.626Z,3.20
2022-11-13T06:22:58.607Z,4.10
2022-11-13T06:23:58.594Z,4.50
2022-11-13T06:24:58.612Z,4.70
2022-11-13T06:25:58.587Z,6.10
2022-11-13T06:26:58.547Z,4.40
2022-11-13T06:27:58.546Z,3.40
2022-11-13T06:28:58.508Z,2.80
2022-11-13T06:29:58.486Z,2.80
2022-11-13T06:30:58.512Z,2.80
2022-11-13T06:31:58.543Z,3.10
2022-11-13T06:32:58.437Z,3.00
2022-11-13T06:33:58.442Z,2.50
2022-11-13T06:34:58.406Z,2.20
2022-11-13T06:35:58.416Z,2.30
2022-11-13T06:36:59.168Z,3.40
2022-11-13T06:37:58.355Z,2.20
2022-11-13T06:38:58.377Z,2.10
2022-11-13T06:39:58.320Z,2.90
2022-11-13T06:40:58.323Z,2.40
2022-11-13T06:41:58.280Z,3.20
2022-11-13T06:42:58.255Z,2.90
2022-11-13T06:44:02.372Z,2.70
2022-11-13T06:45:00.247Z,2.60
2022-11-13T06:45:58.295Z,2.70
2022-11-13T06:46:58.204Z,2.10
2022-11-13T06:47:58.240Z,2.90
2022-11-13T06:48:58.176Z,2.90
2022-11-13T06:49:58.150Z,2.50
2022-11-13T06:50:58.152Z,3.20
2022-11-13T06:51:58.125Z,2.00
2022-11-13T06:52:58.102Z,2.40
2022-11-13T06:53:58.082Z,2.30
2022-11-13T06:54:58.065Z,2.70
2022-11-13T06:55:58.071Z,2.20
2022-11-13T06:56:58.025Z,2.50
2022-11-13T06:57:58.001Z,2.90
2022-11-13T06:58:58.009Z,2.50
2022-11-13T06:59:57.974Z,2.40
2022-11-13T07:00:58.044Z,3.10
2022-11-13T07:01:57.944Z,4.00
2022-11-13T07:02:57.911Z,5.30
2022-11-13T07:03:57.963Z,6.10
2022-11-13T07:04:57.907Z,6.20
2022-11-13T07:05:57.895Z,6.40
2022-11-13T07:06:57.954Z,5.90
2022-11-13T07:07:57.829Z,5.40
2022-11-13T07:08:57.808Z,5.00
2022-11-13T07:09:57.808Z,4.70
2022-11-13T07:10:57.810Z,4.00
2022-11-13T07:11:57.760Z,5.40
2022-11-13T07:12:58.750Z,4.00
2022-11-13T07:13:57.732Z,5.00
2022-11-13T07:14:57.705Z,4.40
2022-11-13T07:15:57.717Z,4.70
2022-11-13T07:17:09.231Z,4.40
2022-11-13T07:17:59.683Z,4.40
2022-11-13T07:18:57.638Z,4.50
2022-11-13T07:19:57.686Z,3.90
2022-11-13T07:20:57.633Z,5.50
2022-11-13T07:21:57.585Z,4.30
2022-11-13T07:22:57.583Z,4.20
2022-11-13T07:23:57.554Z,4.10
2022-11-13T07:24:57.528Z,5.30
2022-11-13T07:25:57.565Z,4.90
2022-11-13T07:26:57.492Z,6.10
2022-11-13T07:27:57.491Z,7.30
2022-11-13T07:28:57.474Z,5.10
2022-11-13T07:30:02.305Z,3.70
2022-11-13T07:30:59.479Z,4.30
2022-11-13T07:31:57.449Z,5.00
2022-11-13T07:32:57.406Z,4.10
2022-11-13T07:33:57.376Z,3.70
2022-11-13T07:34:57.369Z,4.90
2022-11-13T07:35:57.455Z,4.70
2022-11-13T07:36:57.335Z,4.80
2022-11-13T07:37:57.307Z,5.20
2022-11-13T07:39:00.220Z,3.80
2022-11-13T07:39:58.277Z,4.50
2022-11-13T07:40:57.305Z,4.50
2022-11-13T07:41:57.273Z,4.70
2022-11-13T07:42:57.240Z,4.50
2022-11-13T07:43:57.222Z,3.80
2022-11-13T07:44:57.209Z,4.20
2022-11-13T07:45:57.265Z,3.50
2022-11-13T07:46:57.163Z,3.90
2022-11-13T07:47:57.161Z,4.40
2022-11-13T07:48:57.141Z,4.20
2022-11-13T07:50:04.393Z,4.60
2022-11-13T07:50:59.211Z,4.50
2022-11-13T07:51:57.098Z,4.60
2022-11-13T07:52:57.081Z,3.30
2022-11-13T07:53:57.049Z,4.70
2022-11-13T07:54:57.060Z,5.30
2022-11-13T07:55:57.053Z,4.20
2022-11-13T07:56:57.009Z,3.70
2022-11-13T07:57:56.985Z,3.80
2022-11-13T07:58:56.983Z,3.80
2022-11-13T07:59:56.961Z,4.10
2022-11-13T08:00:57.030Z,4.80
2022-11-13T08:01:56.929Z,4.40
2022-11-13T08:02:56.899Z,3.50
2022-11-13T08:03:56.899Z,3.50
2022-11-13T08:04:56.871Z,4.30
2022-11-13T08:05:56.901Z,2.80
2022-11-13T08:06:56.944Z,3.80
2022-11-13T08:07:56.834Z,3.20
2022-11-13T08:08:57.813Z,3.00
2022-11-13T08:09:56.792Z,3.10
2022-11-13T08:10:56.797Z,3.60
2022-11-13T08:11:56.762Z,3.70
2022-11-13T08:12:56.751Z,4.30
2022-11-13T08:13:56.716Z,3.00
2022-11-13T08:14:56.701Z,4.40
2022-11-13T08:15:56.736Z,3.20
2022-11-13T08:16:56.687Z,3.00
2022-11-13T08:17:56.652Z,3.10
2022-11-13T08:18:56.645Z,4.20
2022-11-13T08:19:56.617Z,3.80
2022-11-13T08:20:56.633Z,3.00
2022-11-13T08:21:56.584Z,3.20
2022-11-13T08:22:56.643Z,3.70
2022-11-13T08:23:56.550Z,3.10
2022-11-13T08:24:56.558Z,4.60
2022-11-13T08:25:56.563Z,3.00
2022-11-13T08:26:56.558Z,2.90
2022-11-13T08:27:56.500Z,4.10
2022-11-13T08:28:56.489Z,2.90
2022-11-13T08:29:56.475Z,2.90
2022-11-13T08:30:56.480Z,4.40
2022-11-13T08:31:56.426Z,4.40
2022-11-13T08:32:56.425Z,4.30
2022-11-13T08:33:56.391Z,3.60
2022-11-13T08:34:56.392Z,3.20
2022-11-13T08:35:56.403Z,3.10
2022-11-13T08:36:56.359Z,3.20
2022-11-13T08:37:56.340Z,4.50
2022-11-13T08:38:56.411Z,3.00
2022-11-13T08:39:56.321Z,3.30
2022-11-13T08:40:56.327Z,3.40
2022-11-13T08:41:56.287Z,3.20
2022-11-13T08:42:56.255Z,2.80
2022-11-13T08:43:56.254Z,3.70
2022-11-13T08:44:56.229Z,3.50
2022-11-13T08:45:56.240Z,4.50
2022-11-13T08:46:56.195Z,4.40
2022-11-13T08:47:56.182Z,3.20
2022-11-13T08:48:56.177Z,3.40
2022-11-13T08:49:56.147Z,3.10
2022-11-13T08:50:56.158Z,3.10
2022-11-13T08:51:56.115Z,2.70
2022-11-13T08:52:56.107Z,3.10
2022-11-13T08:53:56.075Z,3.80
2022-11-13T08:54:56.142Z,3.90
2022-11-13T08:55:56.080Z,3.80
2022-11-13T08:56:57.956Z,3.40
2022-11-13T08:57:57.022Z,3.60
2022-11-13T08:58:55.997Z,4.00
2022-11-13T08:59:55.983Z,4.00
2022-11-13T09:00:55.995Z,4.90
2022-11-13T09:01:56.945Z,3.90
2022-11-13T09:02:55.940Z,3.60
2022-11-13T09:03:55.997Z,4.40
2022-11-13T09:04:55.955Z,3.20
2022-11-13T09:05:55.914Z,3.60
2022-11-13T09:06:55.902Z,3.30
2022-11-13T09:07:55.952Z,3.70
2022-11-13T09:08:55.852Z,4.20
2022-11-13T09:09:55.857Z,3.30
2022-11-13T09:10:55.900Z,3.40
2022-11-13T09:11:55.782Z,3.30
2022-11-13T09:12:55.777Z,3.50
2022-11-13T09:13:55.756Z,3.80
2022-11-13T09:14:55.749Z,3.50
2022-11-13T09:15:55.758Z,3.30
2022-11-13T09:16:55.714Z,3.60
2022-11-13T09:17:55.688Z,4.40
2022-11-13T09:18:55.677Z,3.10
2022-11-13T09:19:58.393Z,4.50
2022-11-13T09:20:56.681Z,3.80
2022-11-13T09:21:55.619Z,3.70
2022-11-13T09:22:55.606Z,3.30
2022-11-13T09:23:55.606Z,3.80
2022-11-13T09:24:55.570Z,3.20
2022-11-13T09:25:55.589Z,3.50
2022-11-13T09:26:55.618Z,3.40
2022-11-13T09:27:55.535Z,3.60
2022-11-13T09:28:55.553Z,3.50
2022-11-13T09:29:55.911Z,3.50
2022-11-13T09:30:56.520Z,4.20
2022-11-13T09:31:55.459Z,3.40
2022-11-13T09:32:55.441Z,3.40
2022-11-13T09:33:55.432Z,3.00
2022-11-13T09:34:55.418Z,3.70
2022-11-13T09:35:55.437Z,3.80
2022-11-13T09:36:55.401Z,3.40
2022-11-13T09:37:55.363Z,3.40
2022-11-13T09:38:55.353Z,3.70
2022-11-13T09:39:55.342Z,3.90
2022-11-13T09:40:55.342Z,3.30
2022-11-13T09:41:55.301Z,3.60
2022-11-13T09:42:55.350Z,3.40
2022-11-13T09:43:59.500Z,3.80
2022-11-13T09:44:56.393Z,3.00
2022-11-13T09:45:55.269Z,3.30
2022-11-13T09:46:55.217Z,3.20
2022-11-13T09:47:55.219Z,4.20
2022-11-13T09:48:55.199Z,3.30
2022-11-13T09:49:55.201Z,2.90
2022-11-13T09:50:55.186Z,3.30
2022-11-13T09:51:55.141Z,3.70
2022-11-13T09:52:55.139Z,4.70
2022-11-13T09:53:55.108Z,3.30
2022-11-13T09:54:55.105Z,3.60
2022-11-13T09:55:55.118Z,3.70
2022-11-13T09:56:55.066Z,3.30
2022-11-13T09:57:55.072Z,3.50
2022-11-13T09:58:55.105Z,3.60
2022-11-13T09:59:55.037Z,3.70
2022-11-13T10:00:55.073Z,4.20
2022-11-13T10:01:54.999Z,3.50
2022-11-13T10:02:54.996Z,4.40
2022-11-13T10:04:01.425Z,5.00
2022-11-13T10:04:56.990Z,3.40
2022-11-13T10:05:54.977Z,3.40
2022-11-13T10:06:54.960Z,3.70
2022-11-13T10:07:54.912Z,3.50
2022-11-13T10:08:54.906Z,3.50
2022-11-13T10:09:54.868Z,3.30
2022-11-13T10:10:56.089Z,3.60
2022-11-13T10:11:55.863Z,3.60
2022-11-13T10:12:54.833Z,3.90
2022-11-13T10:13:54.837Z,3.60
2022-11-13T10:14:54.862Z,3.20
2022-11-13T10:15:54.831Z,3.70
2022-11-13T10:16:54.768Z,3.30
2022-11-13T10:17:56.827Z,3.30
2022-11-13T10:18:55.737Z,3.30
2022-11-13T10:19:54.717Z,3.00
2022-11-13T10:20:54.718Z,3.50
2022-11-13T10:22:07.608Z,3.40
2022-11-13T10:22:56.660Z,3.00
2022-11-13T10:23:54.653Z,3.10
2022-11-13T10:24:54.664Z,3.50
2022-11-13T10:25:54.610Z,3.10
2022-11-13T10:26:54.637Z,3.90
2022-11-13T10:27:54.627Z,3.00
2022-11-13T10:28:54.731Z,3.50
2022-11-13T10:29:54.550Z,3.80
2022-11-13T10:30:54.601Z,3.60
2022-11-13T10:31:54.557Z,4.20
2022-11-13T10:32:54.499Z,4.40
2022-11-13T10:33:54.498Z,3.50
2022-11-13T10:34:54.465Z,4.20
2022-11-13T10:35:54.461Z,3.50
2022-11-13T10:36:54.469Z,3.80
2022-11-13T10:37:54.428Z,4.10
2022-11-13T10:38:54.435Z,3.50
2022-11-13T10:39:54.390Z,4.00
2022-11-13T10:40:54.374Z,3.90
2022-11-13T10:41:54.381Z,4.00
2022-11-13T10:42:54.330Z,3.70
2022-11-13T10:43:54.317Z,4.30
2022-11-13T10:44:54.300Z,4.10
2022-11-13T10:45:54.330Z,3.70
2022-11-13T10:46:54.369Z,3.30
2022-11-13T10:48:07.448Z,3.60
2022-11-13T10:48:56.253Z,4.50
2022-11-13T10:49:54.219Z,3.70
2022-11-13T10:50:54.257Z,3.90
2022-11-13T10:51:54.216Z,3.80
2022-11-13T10:52:54.171Z,3.50
2022-11-13T10:53:54.150Z,4.40
2022-11-13T10:54:54.138Z,3.60
2022-11-13T10:55:54.119Z,4.50
2022-11-13T10:56:54.137Z,4.50
2022-11-13T10:57:56.552Z,4.30
2022-11-13T10:58:55.066Z,3.40
2022-11-13T10:59:54.048Z,3.40
2022-11-13T11:00:54.085Z,3.80
2022-11-13T11:01:54.054Z,3.60
2022-11-13T11:02:54.073Z,4.00
2022-11-13T11:03:54.016Z,4.40
2022-11-13T11:04:54.019Z,4.30
2022-11-13T11:05:53.968Z,3.50
2022-11-13T11:07:18.907Z,3.30
2022-11-13T11:07:56.115Z,3.50
2022-11-13T11:08:53.987Z,4.00
2022-11-13T11:09:53.896Z,3.60
2022-11-13T11:10:53.877Z,3.40
2022-11-13T11:11:53.917Z,3.60
2022-11-13T11:12:53.849Z,3.70
2022-11-13T11:13:53.822Z,3.40
2022-11-13T11:14:53.812Z,3.60
2022-11-13T11:15:53.835Z,3.10
2022-11-13T11:16:53.820Z,3.10
2022-11-13T11:17:53.775Z,3.20
2022-11-13T11:18:53.851Z,3.20
2022-11-13T11:19:53.758Z,2.90
2022-11-13T11:20:53.708Z,3.50
2022-11-13T11:21:53.738Z,3.20
2022-11-13T11:22:53.711Z,3.60
2022-11-13T11:23:56.256Z,2.80
2022-11-13T11:24:54.671Z,2.70
2022-11-13T11:25:53.639Z,3.40
2022-11-13T11:26:53.644Z,2.70
2022-11-13T11:27:53.658Z,3.10
2022-11-13T11:28:53.650Z,2.80
2022-11-13T11:29:53.568Z,3.80
2022-11-13T11:30:53.560Z,2.80
2022-11-13T11:31:53.568Z,3.30
2022-11-13T11:32:53.528Z,2.70
2022-11-13T11:33:53.531Z,4.90
2022-11-13T11:34:58.834Z,3.50
2022-11-13T11:35:55.486Z,2.80
2022-11-13T11:36:53.592Z,3.50
2022-11-13T11:37:53.502Z,3.40
2022-11-13T11:38:53.435Z,3.10
2022-11-13T11:39:53.421Z,3.50
2022-11-13T11:40:53.404Z,3.40
2022-11-13T11:41:53.435Z,3.60
2022-11-13T11:42:53.391Z,3.30
2022-11-13T11:43:53.464Z,3.30
2022-11-13T11:44:53.346Z,3.40
2022-11-13T11:45:53.337Z,3.60
2022-11-13T11:46:53.343Z,3.30
2022-11-13T11:47:53.286Z,3.60
2022-11-13T11:48:53.275Z,3.60
2022-11-13T11:49:53.306Z,3.10
2022-11-13T11:50:53.331Z,4.40
2022-11-13T11:51:53.263Z,3.20
2022-11-13T11:52:54.257Z,4.60
2022-11-13T11:53:53.190Z,3.00
2022-11-13T11:54:53.168Z,3.20
2022-11-13T11:55:53.293Z,3.40
2022-11-13T11:56:53.178Z,4.30
2022-11-13T11:57:53.143Z,3.20
2022-11-13T11:58:54.179Z,4.10
2022-11-13T11:59:53.126Z,3.10
2022-11-13T12:00:53.067Z,3.20
2022-11-13T12:01:53.136Z,2.80
2022-11-13T12:02:53.033Z,3.10
2022-11-13T12:03:53.044Z,4.00
2022-11-13T12:04:53.048Z,3.30
2022-11-13T12:05:53.175Z,4.10
2022-11-13T12:06:53.193Z,3.10
2022-11-13T12:07:52.997Z,3.90
2022-11-13T12:08:52.958Z,3.80
2022-11-13T12:09:53.016Z,3.40
2022-11-13T12:10:52.895Z,3.00
2022-11-13T12:11:53.103Z,4.00
2022-11-13T12:12:52.868Z,3.90
2022-11-13T12:13:53.136Z,2.90
2022-11-13T12:14:52.836Z,3.90
2022-11-13T12:15:52.812Z,4.30
2022-11-13T12:18:11.749Z,2.40
2022-11-13T12:19:11.740Z,3.20
2022-11-13T12:20:12.942Z,3.10
2022-11-13T12:21:12.940Z,3.50
2022-11-13T12:22:12.968Z,3.70
2022-11-13T12:23:12.901Z,3.70
2022-11-13T12:24:12.792Z,3.10
2022-11-13T12:25:12.783Z,2.90
2022-11-13T12:26:12.753Z,4.50
2022-11-13T12:27:12.865Z,3.20
2022-11-13T12:28:12.718Z,3.00
2022-11-13T12:29:12.728Z,3.50
2022-11-13T12:30:12.731Z,3.20
2022-11-13T12:31:12.711Z,3.30
2022-11-13T12:32:12.696Z,2.90
2022-11-13T12:33:12.747Z,3.20
2022-11-13T12:34:12.652Z,2.30
2022-11-13T12:35:12.676Z,4.30
2022-11-13T12:36:12.587Z,3.30
2022-11-13T12:37:12.613Z,2.90
2022-11-13T12:38:12.663Z,2.70
2022-11-13T12:39:12.531Z,2.60
2022-11-13T12:40:12.509Z,3.10
2022-11-13T12:41:12.510Z,4.00
2022-11-13T12:42:12.517Z,2.50
2022-11-13T12:43:12.461Z,2.50
2022-11-13T12:44:12.513Z,2.40
2022-11-13T12:45:12.462Z,4.00
2022-11-13T12:46:12.439Z,3.90
2022-11-13T12:47:12.414Z,3.60
2022-11-13T12:48:12.365Z,2.40
2022-11-13T12:49:12.351Z,2.90
2022-11-13T12:50:12.332Z,3.80
2022-11-13T12:51:12.329Z,3.40
2022-11-13T12:52:12.327Z,3.40
2022-11-13T12:53:12.335Z,3.30
2022-11-13T12:54:12.327Z,3.20
2022-11-13T12:55:12.260Z,3.50
2022-11-13T12:56:12.247Z,3.00
2022-11-13T12:57:12.240Z,3.60
2022-11-13T12:58:12.191Z,2.80
2022-11-13T12:59:41.032Z,3.20
2022-11-13T13:00:14.162Z,3.30
2022-11-13T13:01:12.232Z,2.30
2022-11-13T13:02:12.149Z,2.80
2022-11-13T13:03:12.152Z,3.00
2022-11-13T13:04:12.092Z,3.60
2022-11-13T13:05:12.066Z,3.60
2022-11-13T13:06:12.079Z,2.90
2022-11-13T13:07:12.185Z,2.90
2022-11-13T13:08:12.025Z,3.30
2022-11-13T13:09:11.998Z,2.50
2022-11-13T13:10:12.100Z,2.60
2022-11-13T13:11:11.963Z,3.10
2022-11-13T13:12:11.972Z,2.00
2022-11-13T13:13:11.930Z,2.20
2022-11-13T13:14:11.913Z,2.30
2022-11-13T13:15:11.894Z,2.60
2022-11-13T13:16:11.884Z,2.80
2022-11-13T13:17:11.922Z,2.90
2022-11-13T13:18:11.860Z,3.00
2022-11-13T13:19:11.840Z,2.20